Terminal Aerodrome Forecast
Issued by NWS

Home | Current Version | Previous Version | Text Only | Print | Product List | Glossary On
Versions: 1 2 3 4 5 6 7 8 9 10 11 12 13 14 15 16 17 18 19 20 21 22
000
FTUS41 KPBZ 300538
TAFLBE
TAF
KLBE 300538Z 3006/3106 00000KT P6SM FEW250
     FM300700 00000KT 3SM BR BKN080
     FM301400 20004KT P6SM VCSH BKN080
     FM302000 21004KT P6SM -SHRA VCTS BKN050CB
     FM302300 18004KT P6SM VCSH BKN100=

USA.gov is the U.S. government's official web portal to all federal, state and local government web resources and services.